sensor_id;sensor_type;location;lat;lon;timestamp;pressure;altitude;pressure_sealevel;temperature;humidity
36258;BME280;22294;52.044;4.582;2023-04-01T00:00:58;75014.28;;;-144.37;100.00
36258;BME280;22294;52.044;4.582;2023-04-01T00:03:24;75016.34;;;-144.37;100.00
36258;BME280;22294;52.044;4.582;2023-04-01T00:05:50;75016.34;;;-144.37;100.00
36258;BME280;22294;52.044;4.582;2023-04-01T00:08:16;75012.25;;;-144.37;100.00
36258;BME280;22294;52.044;4.582;2023-04-01T00:10:41;75018.38;;;-144.37;100.00
36258;BME280;22294;52.044;4.582;2023-04-01T00:13:07;75024.50;;;-144.37;100.00
36258;BME280;22294;52.044;4.582;2023-04-01T00:15:32;75032.69;;;-144.37;100.00
36258;BME280;22294;52.044;4.582;2023-04-01T00:17:57;75028.59;;;-144.37;100.00
36258;BME280;22294;52.044;4.582;2023-04-01T00:20:23;75032.69;;;-144.37;100.00
36258;BME280;22294;52.044;4.582;2023-04-01T00:22:50;75024.50;;;-144.37;100.00
36258;BME280;22294;52.044;4.582;2023-04-01T00:25:16;75036.78;;;-144.37;100.00
36258;BME280;22294;52.044;4.582;2023-04-01T00:27:41;75032.69;;;-144.37;100.00
36258;BME280;22294;52.044;4.582;2023-04-01T00:30:06;75026.56;;;-144.37;100.00
36258;BME280;22294;52.044;4.582;2023-04-01T00:32:32;75038.81;;;-144.37;100.00
36258;BME280;22294;52.044;4.582;2023-04-01T00:34:57;75044.97;;;-144.37;100.00
36258;BME280;22294;52.044;4.582;2023-04-01T00:37:24;75042.91;;;-144.37;100.00
36258;BME280;22294;52.044;4.582;2023-04-01T00:39:49;75042.91;;;-144.37;100.00
36258;BME280;22294;52.044;4.582;2023-04-01T00:42:14;75038.81;;;-144.37;100.00
36258;BME280;22294;52.044;4.582;2023-04-01T00:44:40;75044.97;;;-144.37;100.00
36258;BME280;22294;52.044;4.582;2023-04-01T00:47:05;75042.91;;;-144.37;100.00
36258;BME280;22294;52.044;4.582;2023-04-01T00:49:32;75044.97;;;-144.37;100.00
36258;BME280;22294;52.044;4.582;2023-04-01T00:51:58;75055.19;;;-144.37;100.00
36258;BME280;22294;52.044;4.582;2023-04-01T00:54:25;75057.22;;;-144.37;100.00
36258;BME280;22294;52.044;4.582;2023-04-01T00:59:37;75055.19;;;-144.37;100.00
36258;BME280;22294;52.044;4.582;2023-04-01T01:02:05;75063.34;;;-144.37;100.00
36258;BME280;22294;52.044;4.582;2023-04-01T01:04:32;75075.63;;;-144.37;100.00
36258;BME280;22294;52.044;4.582;2023-04-01T01:09:41;75067.44;;;-144.37;100.00
36258;BME280;22294;52.044;4.582;2023-04-01T01:15:00;75073.56;;;-144.37;100.00
36258;BME280;22294;52.044;4.582;2023-04-01T01:17:32;75081.75;;;-144.37;100.00
36258;BME280;22294;52.044;4.582;2023-04-01T01:20:08;75085.84;;;-144.37;100.00
36258;BME280;22294;52.044;4.582;2023-04-01T01:25:25;75083.81;;;-144.37;100.00
36258;BME280;22294;52.044;4.582;2023-04-01T01:28:07;75083.81;;;-144.37;100.00
36258;BME280;22294;52.044;4.582;2023-04-01T01:36:04;75085.84;;;-144.37;100.00
36258;BME280;22294;52.044;4.582;2023-04-01T01:38:32;75100.16;;;-144.37;100.00
36258;BME280;22294;52.044;4.582;2023-04-01T01:40:58;75100.16;;;-144.37;100.00
36258;BME280;22294;52.044;4.582;2023-04-01T01:43:25;75100.16;;;-144.37;100.00
36258;BME280;22294;52.044;4.582;2023-04-01T01:45:53;75104.25;;;-144.37;100.00
36258;BME280;22294;52.044;4.582;2023-04-01T01:48:20;75102.19;;;-144.37;100.00
36258;BME280;22294;52.044;4.582;2023-04-01T01:50:45;75104.25;;;-144.37;100.00
36258;BME280;22294;52.044;4.582;2023-04-01T01:53:12;75104.25;;;-144.37;100.00
36258;BME280;22294;52.044;4.582;2023-04-01T01:55:39;75104.25;;;-144.37;100.00
36258;BME280;22294;52.044;4.582;2023-04-01T01:58:07;75108.34;;;-144.37;100.00
36258;BME280;22294;52.044;4.582;2023-04-01T02:00:35;75110.38;;;-144.37;100.00
36258;BME280;22294;52.044;4.582;2023-04-01T02:03:01;75110.38;;;-144.37;100.00
36258;BME280;22294;52.044;4.582;2023-04-01T02:05:26;75116.50;;;-144.37;100.00
36258;BME280;22294;52.044;4.582;2023-04-01T02:07:55;75120.59;;;-144.37;100.00
36258;BME280;22294;52.044;4.582;2023-04-01T02:10:22;75130.81;;;-144.37;100.00
36258;BME280;22294;52.044;4.582;2023-04-01T02:12:49;75134.91;;;-144.37;100.00
36258;BME280;22294;52.044;4.582;2023-04-01T02:15:15;75130.81;;;-144.37;100.00
36258;BME280;22294;52.044;4.582;2023-04-01T02:17:45;75134.91;;;-144.37;100.00
36258;BME280;22294;52.044;4.582;2023-04-01T02:20:18;75134.91;;;-144.37;100.00
36258;BME280;22294;52.044;4.582;2023-04-01T02:22:46;75139.00;;;-144.37;100.00
36258;BME280;22294;52.044;4.582;2023-04-01T02:25:14;75134.91;;;-144.37;100.00
36258;BME280;22294;52.044;4.582;2023-04-01T02:27:41;75124.69;;;-144.37;100.00
36258;BME280;22294;52.044;4.582;2023-04-01T02:30:08;75134.91;;;-144.37;100.00
36258;BME280;22294;52.044;4.582;2023-04-01T02:32:34;75141.06;;;-144.37;100.00
36258;BME280;22294;52.044;4.582;2023-04-01T02:35:00;75143.09;;;-144.37;100.00
36258;BME280;22294;52.044;4.582;2023-04-01T02:37:30;75147.19;;;-144.37;100.00
36258;BME280;22294;52.044;4.582;2023-04-01T02:39:58;75149.22;;;-144.37;100.00
36258;BME280;22294;52.044;4.582;2023-04-01T02:42:24;75155.38;;;-144.37;100.00
36258;BME280;22294;52.044;4.582;2023-04-01T02:44:50;75151.28;;;-144.37;100.00
36258;BME280;22294;52.044;4.582;2023-04-01T02:47:15;75155.38;;;-144.37;100.00
36258;BME280;22294;52.044;4.582;2023-04-01T02:49:40;75149.22;;;-144.37;100.00
36258;BME280;22294;52.044;4.582;2023-04-01T02:52:06;75147.19;;;-144.37;100.00
36258;BME280;22294;52.044;4.582;2023-04-01T02:54:31;75155.38;;;-144.37;100.00
36258;BME280;22294;52.044;4.582;2023-04-01T02:56:57;75157.41;;;-144.37;100.00
36258;BME280;22294;52.044;4.582;2023-04-01T02:59:22;75155.38;;;-144.37;100.00
36258;BME280;22294;52.044;4.582;2023-04-01T03:01:47;75163.53;;;-144.37;100.00
36258;BME280;22294;52.044;4.582;2023-04-01T03:04:12;75159.44;;;-144.37;100.00
36258;BME280;22294;52.044;4.582;2023-04-01T03:06:37;75161.50;;;-144.37;100.00
36258;BME280;22294;52.044;4.582;2023-04-01T03:09:03;75173.75;;;-144.37;100.00
36258;BME280;22294;52.044;4.582;2023-04-01T03:11:29;75171.72;;;-144.37;100.00
36258;BME280;22294;52.044;4.582;2023-04-01T03:13:54;75175.81;;;-144.37;100.00
36258;BME280;22294;52.044;4.582;2023-04-01T03:16:20;75179.91;;;-144.37;100.00
36258;BME280;22294;52.044;4.582;2023-04-01T03:18:45;75175.81;;;-144.37;100.00
36258;BME280;22294;52.044;4.582;2023-04-01T03:21:17;75192.16;;;-144.37;100.00
36258;BME280;22294;52.044;4.582;2023-04-01T03:23:43;75190.13;;;-144.37;100.00
36258;BME280;22294;52.044;4.582;2023-04-01T03:26:08;75196.25;;;-144.37;100.00
36258;BME280;22294;52.044;4.582;2023-04-01T03:28:33;75202.38;;;-144.37;100.00
36258;BME280;22294;52.044;4.582;2023-04-01T03:30:59;75212.63;;;-144.37;100.00
36258;BME280;22294;52.044;4.582;2023-04-01T03:33:24;75214.66;;;-144.37;100.00
36258;BME280;22294;52.044;4.582;2023-04-01T03:35:49;75220.78;;;-144.37;100.00
36258;BME280;22294;52.044;4.582;2023-04-01T03:38:17;75220.78;;;-144.37;100.00
36258;BME280;22294;52.044;4.582;2023-04-01T03:40:42;75216.69;;;-144.37;100.00
36258;BME280;22294;52.044;4.582;2023-04-01T03:43:07;75226.94;;;-144.37;100.00
36258;BME280;22294;52.044;4.582;2023-04-01T03:45:34;75226.94;;;-144.37;100.00
36258;BME280;22294;52.044;4.582;2023-04-01T03:48:00;75226.94;;;-144.37;100.00
36258;BME280;22294;52.044;4.582;2023-04-01T03:50:25;75228.97;;;-144.37;100.00
36258;BME280;22294;52.044;4.582;2023-04-01T03:52:51;75228.97;;;-144.37;100.00
36258;BME280;22294;52.044;4.582;2023-04-01T03:55:19;75226.94;;;-144.37;100.00
36258;BME280;22294;52.044;4.582;2023-04-01T03:57:44;75237.16;;;-144.37;100.00
36258;BME280;22294;52.044;4.582;2023-04-01T04:00:09;75235.09;;;-144.37;100.00
36258;BME280;22294;52.044;4.582;2023-04-01T04:02:35;75235.09;;;-144.37;100.00
36258;BME280;22294;52.044;4.582;2023-04-01T04:05:00;75235.09;;;-144.37;100.00
36258;BME280;22294;52.044;4.582;2023-04-01T04:07:25;75237.16;;;-144.37;100.00
36258;BME280;22294;52.044;4.582;2023-04-01T04:09:52;75245.34;;;-144.37;100.00
36258;BME280;22294;52.044;4.582;2023-04-01T04:12:17;75251.47;;;-144.37;100.00
36258;BME280;22294;52.044;4.582;2023-04-01T04:14:43;75257.59;;;-144.37;100.00
36258;BME280;22294;52.044;4.582;2023-04-01T04:17:11;75253.50;;;-144.37;100.00
36258;BME280;22294;52.044;4.582;2023-04-01T04:19:41;75255.56;;;-144.37;100.00
36258;BME280;22294;52.044;4.582;2023-04-01T04:22:06;75251.47;;;-144.37;100.00
36258;BME280;22294;52.044;4.582;2023-04-01T04:24:33;75273.97;;;-144.37;100.00
36258;BME280;22294;52.044;4.582;2023-04-01T04:26:58;75265.78;;;-144.37;100.00
36258;BME280;22294;52.044;4.582;2023-04-01T04:29:24;75265.78;;;-144.37;100.00
36258;BME280;22294;52.044;4.582;2023-04-01T04:31:49;75276.00;;;-144.37;100.00
36258;BME280;22294;52.044;4.582;2023-04-01T04:34:14;75278.03;;;-144.37;100.00
36258;BME280;22294;52.044;4.582;2023-04-01T04:36:40;75276.00;;;-144.37;100.00
36258;BME280;22294;52.044;4.582;2023-04-01T04:39:06;75288.28;;;-144.37;100.00
36258;BME280;22294;52.044;4.582;2023-04-01T04:41:31;75290.31;;;-144.37;100.00
36258;BME280;22294;52.044;4.582;2023-04-01T04:43:57;75304.63;;;-144.37;100.00
36258;BME280;22294;52.044;4.582;2023-04-01T04:46:23;75298.50;;;-144.37;100.00
36258;BME280;22294;52.044;4.582;2023-04-01T04:48:49;75296.44;;;-144.37;100.00
36258;BME280;22294;52.044;4.582;2023-04-01T04:51:15;75300.53;;;-144.37;100.00
36258;BME280;22294;52.044;4.582;2023-04-01T04:53:41;75294.41;;;-144.37;100.00
36258;BME280;22294;52.044;4.582;2023-04-01T04:56:06;75302.59;;;-144.37;100.00
36258;BME280;22294;52.044;4.582;2023-04-01T04:58:31;75304.63;;;-144.37;100.00
36258;BME280;22294;52.044;4.582;2023-04-01T05:00:58;75318.94;;;-144.37;100.00
36258;BME280;22294;52.044;4.582;2023-04-01T05:03:24;75316.91;;;-144.37;100.00
36258;BME280;22294;52.044;4.582;2023-04-01T05:05:50;75325.06;;;-144.37;100.00
36258;BME280;22294;52.044;4.582;2023-04-01T05:08:16;75327.13;;;-144.37;100.00
36258;BME280;22294;52.044;4.582;2023-04-01T05:10:41;75333.25;;;-144.37;100.00
36258;BME280;22294;52.044;4.582;2023-04-01T05:13:06;75337.34;;;-144.37;100.00
36258;BME280;22294;52.044;4.582;2023-04-01T05:15:32;75341.44;;;-144.37;100.00
36258;BME280;22294;52.044;4.582;2023-04-01T05:17:57;75357.78;;;-144.37;100.00
36258;BME280;22294;52.044;4.582;2023-04-01T05:20:22;75365.97;;;-144.37;100.00
36258;BME280;22294;52.044;4.582;2023-04-01T05:22:47;75363.91;;;-144.37;100.00
36258;BME280;22294;52.044;4.582;2023-04-01T05:25:13;75372.09;;;-144.37;100.00
36258;BME280;22294;52.044;4.582;2023-04-01T05:27:38;75380.28;;;-144.37;100.00
36258;BME280;22294;52.044;4.582;2023-04-01T05:30:04;75380.28;;;-144.37;100.00
36258;BME280;22294;52.044;4.582;2023-04-01T05:32:30;75382.31;;;-144.37;100.00
36258;BME280;22294;52.044;4.582;2023-04-01T05:34:56;75384.38;;;-144.37;100.00
36258;BME280;22294;52.044;4.582;2023-04-01T05:37:21;75384.38;;;-144.37;100.00
36258;BME280;22294;52.044;4.582;2023-04-01T05:39:47;75382.31;;;-144.37;100.00
36258;BME280;22294;52.044;4.582;2023-04-01T05:42:13;75384.38;;;-144.37;100.00
36258;BME280;22294;52.044;4.582;2023-04-01T05:44:38;75392.56;;;-144.37;100.00
36258;BME280;22294;52.044;4.582;2023-04-01T05:47:04;75388.47;;;-144.37;100.00
36258;BME280;22294;52.044;4.582;2023-04-01T05:49:29;75388.47;;;-144.37;100.00
36258;BME280;22294;52.044;4.582;2023-04-01T05:51:55;75408.91;;;-144.37;100.00
36258;BME280;22294;52.044;4.582;2023-04-01T05:54:20;75408.91;;;-144.37;100.00
36258;BME280;22294;52.044;4.582;2023-04-01T05:56:46;75423.22;;;-144.37;100.00
36258;BME280;22294;52.044;4.582;2023-04-01T05:59:11;75421.19;;;-144.37;100.00
36258;BME280;22294;52.044;4.582;2023-04-01T06:01:37;75427.31;;;-144.37;100.00
36258;BME280;22294;52.044;4.582;2023-04-01T06:04:02;75425.25;;;-144.37;100.00
36258;BME280;22294;52.044;4.582;2023-04-01T06:06:28;75437.53;;;-144.37;100.00
36258;BME280;22294;52.044;4.582;2023-04-01T06:08:53;75439.59;;;-144.37;100.00
36258;BME280;22294;52.044;4.582;2023-04-01T06:11:26;75441.63;;;-144.37;100.00
36258;BME280;22294;52.044;4.582;2023-04-01T06:16:31;75466.16;;;-144.37;100.00
36258;BME280;22294;52.044;4.582;2023-04-01T06:21:37;75466.16;;;-144.37;100.00
36258;BME280;22294;52.044;4.582;2023-04-01T06:24:22;75470.25;;;-144.37;100.00
36258;BME280;22294;52.044;4.582;2023-04-01T06:29:31;75502.97;;;-144.37;100.00
36258;BME280;22294;52.044;4.582;2023-04-01T06:32:10;75509.09;;;-144.37;100.00
36258;BME280;22294;52.044;4.582;2023-04-01T06:40:12;75509.09;;;-144.37;100.00
36258;BME280;22294;52.044;4.582;2023-04-01T06:42:46;75523.41;;;-144.37;100.00
36258;BME280;22294;52.044;4.582;2023-04-01T06:55:59;75531.59;;;-144.37;100.00
36258;BME280;22294;52.044;4.582;2023-04-01T06:58:31;75525.47;;;-144.37;100.00
36258;BME280;22294;52.044;4.582;2023-04-01T07:01:03;75515.25;;;-144.37;100.00
36258;BME280;22294;52.044;4.582;2023-04-01T07:03:38;75511.16;;;-144.37;100.00
36258;BME280;22294;52.044;4.582;2023-04-01T07:06:06;75513.19;;;-144.37;100.00
36258;BME280;22294;52.044;4.582;2023-04-01T07:08:34;75509.09;;;-144.37;100.00
36258;BME280;22294;52.044;4.582;2023-04-01T07:11:02;75515.25;;;-144.37;100.00
36258;BME280;22294;52.044;4.582;2023-04-01T07:13:34;75523.41;;;-144.37;100.00
36258;BME280;22294;52.044;4.582;2023-04-01T07:18:34;75531.59;;;-144.37;100.00
36258;BME280;22294;52.044;4.582;2023-04-01T07:21:02;75523.41;;;-144.37;100.00
36258;BME280;22294;52.044;4.582;2023-04-01T07:23:37;75531.59;;;-144.37;100.00
36258;BME280;22294;52.044;4.582;2023-04-01T07:26:06;75531.59;;;-144.37;100.00
36258;BME280;22294;52.044;4.582;2023-04-01T07:28:35;75531.59;;;-144.37;100.00
36258;BME280;22294;52.044;4.582;2023-04-01T07:33:50;75527.50;;;-144.37;100.00
36258;BME280;22294;52.044;4.582;2023-04-01T07:38:47;75537.72;;;-144.37;100.00
36258;BME280;22294;52.044;4.582;2023-04-01T07:41:23;75535.69;;;-144.37;100.00
36258;BME280;22294;52.044;4.582;2023-04-01T07:48:58;75560.22;;;-144.37;100.00
36258;BME280;22294;52.044;4.582;2023-04-01T07:51:40;75564.31;;;-144.37;100.00
36258;BME280;22294;52.044;4.582;2023-04-01T07:54:19;75556.13;;;-144.37;100.00
36258;BME280;22294;52.044;4.582;2023-04-01T07:56:58;75556.13;;;-144.37;100.00
36258;BME280;22294;52.044;4.582;2023-04-01T08:02:12;75554.09;;;-144.37;100.00
36258;BME280;22294;52.044;4.582;2023-04-01T08:05:13;75558.19;;;-144.37;100.00
36258;BME280;22294;52.044;4.582;2023-04-01T08:22:48;75580.69;;;-144.37;100.00
36258;BME280;22294;52.044;4.582;2023-04-01T08:25:33;75582.72;;;-144.37;100.00
36258;BME280;22294;52.044;4.582;2023-04-01T08:28:15;75584.75;;;-144.37;100.00
36258;BME280;22294;52.044;4.582;2023-04-01T08:30:48;75562.28;;;-144.37;100.00
36258;BME280;22294;52.044;4.582;2023-04-01T08:35:47;75570.44;;;-144.37;100.00
36258;BME280;22294;52.044;4.582;2023-04-01T08:38:31;75582.72;;;-144.37;100.00
36258;BME280;22294;52.044;4.582;2023-04-01T08:40:59;75566.34;;;-144.37;100.00
36258;BME280;22294;52.044;4.582;2023-04-01T08:48:27;75578.63;;;-144.37;100.00
36258;BME280;22294;52.044;4.582;2023-04-01T08:51:01;75586.81;;;-144.37;100.00
36258;BME280;22294;52.044;4.582;2023-04-01T08:53:37;75586.81;;;-144.37;100.00
36258;BME280;22294;52.044;4.582;2023-04-01T08:58:34;75580.69;;;-144.37;100.00
36258;BME280;22294;52.044;4.582;2023-04-01T09:03:34;75582.72;;;-144.37;100.00
36258;BME280;22294;52.044;4.582;2023-04-01T09:08:52;75584.75;;;-144.37;100.00
36258;BME280;22294;52.044;4.582;2023-04-01T09:14:13;75572.50;;;-144.37;100.00
36258;BME280;22294;52.044;4.582;2023-04-01T09:19:15;75582.72;;;-144.37;100.00
36258;BME280;22294;52.044;4.582;2023-04-01T09:21:46;75580.69;;;-144.37;100.00
36258;BME280;22294;52.044;4.582;2023-04-01T09:27:05;75576.59;;;-144.37;100.00
36258;BME280;22294;52.044;4.582;2023-04-01T09:45:35;75566.34;;;-144.37;100.00
36258;BME280;22294;52.044;4.582;2023-04-01T09:50:30;75572.50;;;-144.37;100.00
36258;BME280;22294;52.044;4.582;2023-04-01T09:53:14;75578.63;;;-144.37;100.00
36258;BME280;22294;52.044;4.582;2023-04-01T10:04:09;75595.00;;;-144.37;100.00
36258;BME280;22294;52.044;4.582;2023-04-01T10:11:55;75603.16;;;-144.37;100.00
36258;BME280;22294;52.044;4.582;2023-04-01T10:19:29;75603.16;;;-144.37;100.00
36258;BME280;22294;52.044;4.582;2023-04-01T10:24:53;75597.03;;;-144.37;100.00
36258;BME280;22294;52.044;4.582;2023-04-01T10:27:32;75609.31;;;-144.37;100.00
36258;BME280;22294;52.044;4.582;2023-04-01T10:33:03;75595.00;;;-144.37;100.00
36258;BME280;22294;52.044;4.582;2023-04-01T10:39:08;75605.22;;;-144.37;100.00
36258;BME280;22294;52.044;4.582;2023-04-01T10:41:20;75613.38;;;-144.37;100.00
36258;BME280;22294;52.044;4.582;2023-04-01T10:46:25;75631.78;;;-144.37;100.00
36258;BME280;22294;52.044;4.582;2023-04-01T10:59:15;75637.94;;;-144.37;100.00
36258;BME280;22294;52.044;4.582;2023-04-01T11:09:47;75635.88;;;-144.37;100.00
36258;BME280;22294;52.044;4.582;2023-04-01T11:20:40;75627.72;;;-144.37;100.00
36258;BME280;22294;52.044;4.582;2023-04-01T11:36:58;75639.97;;;-144.37;100.00
36258;BME280;22294;52.044;4.582;2023-04-01T11:42:04;75623.63;;;-144.37;100.00
36258;BME280;22294;52.044;4.582;2023-04-01T11:44:33;75621.56;;;-144.37;100.00
36258;BME280;22294;52.044;4.582;2023-04-01T11:57:46;75633.84;;;-144.37;100.00
36258;BME280;22294;52.044;4.582;2023-04-01T12:05:18;75629.75;;;-144.37;100.00
36258;BME280;22294;52.044;4.582;2023-04-01T12:08:31;75654.28;;;-144.37;100.00
36258;BME280;22294;52.044;4.582;2023-04-01T12:10:40;75646.09;;;-144.37;100.00
36258;BME280;22294;52.044;4.582;2023-04-01T12:15:54;75623.63;;;-144.37;100.00
36258;BME280;22294;52.044;4.582;2023-04-01T12:21:02;75625.66;;;-144.37;100.00
36258;BME280;22294;52.044;4.582;2023-04-01T12:45:17;75637.94;;;-144.37;100.00
36258;BME280;22294;52.044;4.582;2023-04-01T12:50:10;75633.84;;;-144.37;100.00
36258;BME280;22294;52.044;4.582;2023-04-01T12:52:51;75642.03;;;-144.37;100.00
36258;BME280;22294;52.044;4.582;2023-04-01T12:55:40;75635.88;;;-144.37;100.00
36258;BME280;22294;52.044;4.582;2023-04-01T13:00:45;75639.97;;;-144.37;100.00
36258;BME280;22294;52.044;4.582;2023-04-01T13:05:50;75654.28;;;-144.37;100.00
36258;BME280;22294;52.044;4.582;2023-04-01T13:08:28;75650.19;;;-144.37;100.00
36258;BME280;22294;52.044;4.582;2023-04-01T13:11:01;75650.19;;;-144.37;100.00
36258;BME280;22294;52.044;4.582;2023-04-01T13:13:34;75646.09;;;-144.37;100.00
36258;BME280;22294;52.044;4.582;2023-04-01T13:16:14;75652.25;;;-144.37;100.00
36258;BME280;22294;52.044;4.582;2023-04-01T13:18:58;75666.56;;;-144.37;100.00
36258;BME280;22294;52.044;4.582;2023-04-01T13:24:25;75644.06;;;-144.37;100.00
36258;BME280;22294;52.044;4.582;2023-04-01T13:27:08;75635.88;;;-144.37;100.00
36258;BME280;22294;52.044;4.582;2023-04-01T13:29:41;75648.16;;;-144.37;100.00
36258;BME280;22294;52.044;4.582;2023-04-01T13:32:18;75633.84;;;-144.37;100.00
36258;BME280;22294;52.044;4.582;2023-04-01T13:34:59;75625.66;;;-144.37;100.00
36258;BME280;22294;52.044;4.582;2023-04-01T13:42:29;75637.94;;;-144.37;100.00
36258;BME280;22294;52.044;4.582;2023-04-01T13:50:20;75623.63;;;-144.37;100.00
36258;BME280;22294;52.044;4.582;2023-04-01T13:53:01;75625.66;;;-144.37;100.00
36258;BME280;22294;52.044;4.582;2023-04-01T13:55:39;75639.97;;;-144.37;100.00
36258;BME280;22294;52.044;4.582;2023-04-01T13:58:20;75631.78;;;-144.37;100.00
36258;BME280;22294;52.044;4.582;2023-04-01T14:06:05;75658.38;;;-144.37;100.00
36258;BME280;22294;52.044;4.582;2023-04-01T14:11:25;75642.03;;;-144.37;100.00
36258;BME280;22294;52.044;4.582;2023-04-01T14:14:01;75650.19;;;-144.37;100.00
36258;BME280;22294;52.044;4.582;2023-04-01T14:19:11;75670.66;;;-144.37;100.00
36258;BME280;22294;52.044;4.582;2023-04-01T14:22:05;75666.56;;;-144.37;100.00
36258;BME280;22294;52.044;4.582;2023-04-01T14:27:47;75682.91;;;-144.37;100.00
36258;BME280;22294;52.044;4.582;2023-04-01T14:30:32;75668.59;;;-144.37;100.00
36258;BME280;22294;52.044;4.582;2023-04-01T14:33:21;75664.50;;;-144.37;100.00
36258;BME280;22294;52.044;4.582;2023-04-01T14:35:51;75662.47;;;-144.37;100.00
36258;BME280;22294;52.044;4.582;2023-04-01T14:43:58;75662.47;;;-144.37;100.00
36258;BME280;22294;52.044;4.582;2023-04-01T14:46:33;75668.59;;;-144.37;100.00
36258;BME280;22294;52.044;4.582;2023-04-01T14:49:04;75687.00;;;-144.37;100.00
36258;BME280;22294;52.044;4.582;2023-04-01T14:51:36;75684.97;;;-144.37;100.00
36258;BME280;22294;52.044;4.582;2023-04-01T14:54:16;75687.00;;;-144.37;100.00
36258;BME280;22294;52.044;4.582;2023-04-01T14:56:51;75699.28;;;-144.37;100.00
36258;BME280;22294;52.044;4.582;2023-04-01T14:59:27;75711.53;;;-144.37;100.00
36258;BME280;22294;52.044;4.582;2023-04-01T15:01:57;75711.53;;;-144.37;100.00
36258;BME280;22294;52.044;4.582;2023-04-01T15:07:05;75736.09;;;-144.37;100.00
36258;BME280;22294;52.044;4.582;2023-04-01T15:14:51;75748.34;;;-144.37;100.00
36258;BME280;22294;52.044;4.582;2023-04-01T15:20:00;75750.41;;;-144.37;100.00
36258;BME280;22294;52.044;4.582;2023-04-01T15:22:54;75764.72;;;-144.37;100.00
36258;BME280;22294;52.044;4.582;2023-04-01T15:30:22;75801.53;;;-144.37;100.00
36258;BME280;22294;52.044;4.582;2023-04-01T15:32:58;75791.31;;;-144.37;100.00
36258;BME280;22294;52.044;4.582;2023-04-01T15:35:37;75795.38;;;-144.37;100.00
36258;BME280;22294;52.044;4.582;2023-04-01T15:48:41;75852.66;;;-144.37;100.00
36258;BME280;22294;52.044;4.582;2023-04-01T15:51:19;75862.88;;;-144.37;100.00
36258;BME280;22294;52.044;4.582;2023-04-01T15:59:42;75852.66;;;-144.37;100.00
36258;BME280;22294;52.044;4.582;2023-04-01T16:05:35;75864.91;;;-144.37;100.00
36258;BME280;22294;52.044;4.582;2023-04-01T16:20:20;75924.22;;;-144.37;100.00
36258;BME280;22294;52.044;4.582;2023-04-01T16:22:56;75938.53;;;-144.37;100.00
36258;BME280;22294;52.044;4.582;2023-04-01T16:30:39;75948.75;;;-144.37;100.00
36258;BME280;22294;52.044;4.582;2023-04-01T16:38:13;75973.31;;;-144.37;100.00
36258;BME280;22294;52.044;4.582;2023-04-01T16:47:56;75993.75;;;-144.37;100.00
36258;BME280;22294;52.044;4.582;2023-04-01T16:55:20;76026.47;;;-144.37;100.00
36258;BME280;22294;52.044;4.582;2023-04-01T16:58:07;76026.47;;;-144.37;100.00
36258;BME280;22294;52.044;4.582;2023-04-01T17:00:38;76030.56;;;-144.37;100.00
36258;BME280;22294;52.044;4.582;2023-04-01T17:08:23;76038.75;;;-144.37;100.00
36258;BME280;22294;52.044;4.582;2023-04-01T17:13:40;76038.75;;;-144.37;100.00
36258;BME280;22294;52.044;4.582;2023-04-01T17:21:21;76059.19;;;-144.37;100.00
36258;BME280;22294;52.044;4.582;2023-04-01T17:23:52;76087.84;;;-144.37;100.00
36258;BME280;22294;52.044;4.582;2023-04-01T17:26:28;76075.56;;;-144.37;100.00
36258;BME280;22294;52.044;4.582;2023-04-01T17:41:57;76108.28;;;-144.37;100.00
36258;BME280;22294;52.044;4.582;2023-04-01T17:47:13;76114.41;;;-144.37;100.00
36258;BME280;22294;52.044;4.582;2023-04-01T17:49:42;76122.59;;;-144.37;100.00
36258;BME280;22294;52.044;4.582;2023-04-01T18:02:42;76161.47;;;-144.37;100.00
36258;BME280;22294;52.044;4.582;2023-04-01T18:13:42;76224.84;;;-144.37;100.00
36258;BME280;22294;52.044;4.582;2023-04-01T18:16:17;76243.25;;;-144.37;100.00
36258;BME280;22294;52.044;4.582;2023-04-01T18:21:46;76247.34;;;-144.37;100.00
36258;BME280;22294;52.044;4.582;2023-04-01T18:26:35;76261.66;;;-144.37;100.00
36258;BME280;22294;52.044;4.582;2023-04-01T18:32:32;76273.94;;;-144.37;100.00
36258;BME280;22294;52.044;4.582;2023-04-01T18:34:50;76282.13;;;-144.37;100.00
36258;BME280;22294;52.044;4.582;2023-04-01T18:37:31;76286.22;;;-144.37;100.00
36258;BME280;22294;52.044;4.582;2023-04-01T18:42:41;76298.47;;;-144.37;100.00
36258;BME280;22294;52.044;4.582;2023-04-01T18:45:27;76304.63;;;-144.37;100.00
36258;BME280;22294;52.044;4.582;2023-04-01T18:50:38;76318.94;;;-144.37;100.00
36258;BME280;22294;52.044;4.582;2023-04-01T18:55:49;76349.63;;;-144.37;100.00
36258;BME280;22294;52.044;4.582;2023-04-01T18:58:19;76345.53;;;-144.37;100.00
36258;BME280;22294;52.044;4.582;2023-04-01T19:06:17;76378.25;;;-144.37;100.00
36258;BME280;22294;52.044;4.582;2023-04-01T19:08:44;76370.06;;;-144.37;100.00
36258;BME280;22294;52.044;4.582;2023-04-01T19:22:18;76410.97;;;-144.37;100.00
36258;BME280;22294;52.044;4.582;2023-04-01T19:27:36;76427.34;;;-144.37;100.00
36258;BME280;22294;52.044;4.582;2023-04-01T19:32:39;76445.75;;;-144.37;100.00
36258;BME280;22294;52.044;4.582;2023-04-01T19:35:10;76455.97;;;-144.37;100.00
36258;BME280;22294;52.044;4.582;2023-04-01T19:37:39;76449.84;;;-144.37;100.00
36258;BME280;22294;52.044;4.582;2023-04-01T19:42:42;76447.78;;;-144.37;100.00
36258;BME280;22294;52.044;4.582;2023-04-01T19:45:34;76455.97;;;-144.37;100.00
36258;BME280;22294;52.044;4.582;2023-04-01T19:53:50;76468.25;;;-144.37;100.00
36258;BME280;22294;52.044;4.582;2023-04-01T19:56:20;76484.59;;;-144.37;100.00
36258;BME280;22294;52.044;4.582;2023-04-01T20:01:34;76500.97;;;-144.37;100.00